Time,TemperatureF,DewpointF,PressureIn,WindDirection,WindDirectionDegrees,WindSpeedMPH,WindSpeedGustMPH,Humidity,HourlyPrecipIn,Conditions,Clouds,dailyrainin,SolarRadiationWatts/m^2,SoftwareType,DateUTC
2013-01-01 00:02:00,45.0,31.0,-100.00,South,169,1.0,2.0,58,0.00,,,0.00,0.000000,,2013-01-01 05:02:00,
2013-01-01 00:33:00,45.0,31.0,-100.00,South,169,1.0,2.0,58,0.00,,,0.00,0.000000,,2013-01-01 05:33:00,
2013-01-01 00:42:00,45.0,31.0,-100.00,South,169,1.0,2.0,58,0.00,,,0.00,0.000000,,2013-01-01 05:42:00,
2013-01-01 00:53:00,45.0,31.0,-100.00,South,169,1.0,2.0,58,0.00,,,0.00,0.000000,,2013-01-01 05:53:00,
2013-01-01 01:02:00,44.0,28.0,-100.00,ESE,110,1.0,2.0,53,0.00,,,0.00,0.000000,,2013-01-01 06:02:00,
2013-01-01 01:33:00,44.0,28.0,-100.00,ESE,110,1.0,2.0,53,0.00,,,0.00,0.000000,,2013-01-01 06:33:00,
2013-01-01 01:43:00,44.0,28.0,-100.00,ESE,110,1.0,2.0,53,0.00,,,0.00,0.000000,,2013-01-01 06:43:00,
2013-01-01 01:52:00,44.0,28.0,-100.00,ESE,110,1.0,2.0,53,0.00,,,0.00,0.000000,,2013-01-01 06:52:00,
2013-01-01 02:02:00,44.0,30.0,-100.00,ENE,65,1.0,2.0,58,0.00,,,0.00,0.000000,,2013-01-01 07:02:00,
2013-01-01 02:22:00,44.0,30.0,-100.00,ENE,65,1.0,2.0,58,0.00,,,0.00,0.000000,,2013-01-01 07:22:00,
2013-01-01 02:32:00,44.0,30.0,-100.00,ENE,65,1.0,2.0,58,0.00,,,0.00,0.000000,,2013-01-01 07:32:00,
2013-01-01 02:42:00,44.0,30.0,-100.00,ENE,65,1.0,2.0,58,0.00,,,0.00,0.000000,,2013-01-01 07:42:00,
2013-01-01 02:53:00,44.0,30.0,-100.00,ENE,65,1.0,2.0,58,0.00,,,0.00,0.000000,,2013-01-01 07:53:00,
2013-01-01 03:02:00,42.0,30.0,-100.00,North,7,1.0,3.0,62,0.00,,,0.00,0.000000,,2013-01-01 08:02:00,
2013-01-01 03:32:00,42.0,30.0,-100.00,North,7,1.0,3.0,62,0.00,,,0.00,0.000000,,2013-01-01 08:32:00,
2013-01-01 03:42:00,42.0,30.0,-100.00,North,7,1.0,3.0,62,0.00,,,0.00,0.000000,,2013-01-01 08:42:00,
2013-01-01 03:53:00,42.0,30.0,-100.00,North,7,1.0,3.0,62,0.00,,,0.00,0.000000,,2013-01-01 08:53:00,
2013-01-01 04:02:00,43.0,31.0,-100.00,NNW,347,1.0,2.0,63,0.00,,,0.00,0.000000,,2013-01-01 09:02:00,
2013-01-01 04:22:00,43.0,31.0,-100.00,NNW,347,1.0,2.0,63,0.00,,,0.00,0.000000,,2013-01-01 09:22:00,
2013-01-01 04:32:00,43.0,31.0,-100.00,NNW,347,1.0,2.0,63,0.00,,,0.00,0.000000,,2013-01-01 09:32:00,
2013-01-01 04:42:00,43.0,31.0,-100.00,NNW,347,1.0,2.0,63,0.00,,,0.00,0.000000,,2013-01-01 09:42:00,
2013-01-01 04:52:00,43.0,31.0,-100.00,NNW,347,1.0,2.0,63,0.00,,,0.00,0.000000,,2013-01-01 09:52:00,
2013-01-01 05:02:00,43.0,34.0,-100.00,NNW,334,2.0,3.0,69,0.00,,,0.00,0.000000,,2013-01-01 10:02:00,
2013-01-01 05:33:00,43.0,34.0,-100.00,NNW,334,2.0,3.0,69,0.00,,,0.00,0.000000,,2013-01-01 10:33:00,
2013-01-01 05:43:00,43.0,34.0,-100.00,NNW,334,2.0,3.0,69,0.00,,,0.00,0.000000,,2013-01-01 10:43:00,
2013-01-01 05:53:00,43.0,34.0,-100.00,NNW,334,2.0,3.0,69,0.00,,,0.00,0.000000,,2013-01-01 10:53:00,
2013-01-01 06:02:00,44.0,34.0,-100.00,East,82,1.0,2.0,67,0.00,,,0.00,0.000000,,2013-01-01 11:02:00,
2013-01-01 06:23:00,44.0,34.0,-100.00,East,82,1.0,2.0,67,0.00,,,0.00,0.000000,,2013-01-01 11:23:00,
2013-01-01 06:33:00,44.0,34.0,-100.00,East,82,1.0,2.0,67,0.00,,,0.00,0.000000,,2013-01-01 11:33:00,
2013-01-01 06:43:00,44.0,34.0,-100.00,East,82,1.0,2.0,67,0.00,,,0.00,0.000000,,2013-01-01 11:43:00,
2013-01-01 06:53:00,44.0,34.0,-100.00,East,82,1.0,2.0,67,0.00,,,0.00,0.000000,,2013-01-01 11:53:00,
2013-01-01 07:02:00,45.0,35.0,-100.00,NE,44,1.0,2.0,67,0.00,,,0.00,0.000000,,2013-01-01 12:02:00,
2013-01-01 07:33:00,45.0,35.0,-100.00,NE,44,1.0,2.0,67,0.00,,,0.00,0.000000,,2013-01-01 12:33:00,
2013-01-01 07:43:00,45.0,35.0,-100.00,NE,44,1.0,2.0,67,0.00,,,0.00,0.000000,,2013-01-01 12:43:00,
2013-01-01 07:53:00,45.0,35.0,-100.00,NE,44,1.0,2.0,67,0.00,,,0.00,0.000000,,2013-01-01 12:53:00,
2013-01-01 08:02:00,43.0,41.0,-100.00,SSW,202,2.0,4.0,93,0.02,,,0.02,0.000000,,2013-01-01 13:02:00,
2013-01-01 08:33:00,43.0,41.0,-100.00,SSW,202,2.0,4.0,93,0.02,,,0.02,0.000000,,2013-01-01 13:33:00,
2013-01-01 08:43:00,43.0,41.0,-100.00,SSW,202,2.0,4.0,93,0.02,,,0.02,0.000000,,2013-01-01 13:43:00,
2013-01-01 08:53:00,43.0,41.0,-100.00,SSW,202,2.0,4.0,93,0.02,,,0.02,0.000000,,2013-01-01 13:53:00,
2013-01-01 09:02:00,43.0,43.0,-100.00,SSE,155,1.0,3.0,99,0.15,,,0.17,5.000000,,2013-01-01 14:02:00,
2013-01-01 09:33:00,43.0,43.0,-100.00,SSE,155,1.0,3.0,99,0.15,,,0.17,5.000000,,2013-01-01 14:33:00,
2013-01-01 09:43:00,43.0,43.0,-100.00,SSE,155,1.0,3.0,99,0.15,,,0.17,5.000000,,2013-01-01 14:43:00,
2013-01-01 09:53:00,43.0,43.0,-100.00,SSE,155,1.0,3.0,99,0.15,,,0.17,5.000000,,2013-01-01 14:53:00,
2013-01-01 10:02:00,43.0,43.0,-100.00,SSE,161,2.0,3.0,99,0.13,,,0.30,21.000000,,2013-01-01 15:02:00,
2013-01-01 10:33:00,43.0,43.0,-100.00,SSE,161,2.0,3.0,99,0.13,,,0.30,21.000000,,2013-01-01 15:33:00,
2013-01-01 10:43:00,43.0,43.0,-100.00,SSE,161,2.0,3.0,99,0.13,,,0.30,21.000000,,2013-01-01 15:43:00,
2013-01-01 10:53:00,43.0,43.0,-100.00,SSE,161,2.0,3.0,99,0.13,,,0.30,21.000000,,2013-01-01 15:53:00,
2013-01-01 11:02:00,46.0,46.0,-100.00,SSE,163,1.0,3.0,100,0.15,,,0.45,45.000000,,2013-01-01 16:02:00,
2013-01-01 11:33:00,46.0,46.0,-100.00,SSE,163,1.0,3.0,100,0.15,,,0.45,45.000000,,2013-01-01 16:33:00,
2013-01-01 11:43:00,46.0,46.0,-100.00,SSE,163,1.0,3.0,100,0.15,,,0.45,45.000000,,2013-01-01 16:43:00,
2013-01-01 11:53:00,46.0,46.0,-100.00,SSE,163,1.0,3.0,100,0.15,,,0.45,45.000000,,2013-01-01 16:53:00,
2013-01-01 12:02:00,46.0,46.0,-100.00,NNW,334,2.0,3.0,100,0.06,,,0.51,45.000000,,2013-01-01 17:02:00,
2013-01-01 12:33:00,46.0,46.0,-100.00,NNW,334,2.0,3.0,100,0.06,,,0.51,45.000000,,2013-01-01 17:33:00,
2013-01-01 12:43:00,46.0,46.0,-100.00,NNW,334,2.0,3.0,100,0.06,,,0.51,45.000000,,2013-01-01 17:43:00,
2013-01-01 12:53:00,46.0,46.0,-100.00,NNW,334,2.0,3.0,100,0.06,,,0.51,45.000000,,2013-01-01 17:53:00,
2013-01-01 13:02:00,47.0,47.0,-100.00,SE,140,1.0,2.0,100,0.07,,,0.58,45.000000,,2013-01-01 18:02:00,
2013-01-01 13:33:00,47.0,47.0,-100.00,SE,140,1.0,2.0,100,0.07,,,0.58,45.000000,,2013-01-01 18:33:00,
2013-01-01 13:43:00,47.0,47.0,-100.00,SE,140,1.0,2.0,100,0.07,,,0.58,45.000000,,2013-01-01 18:43:00,
2013-01-01 13:53:00,47.0,47.0,-100.00,SE,140,1.0,2.0,100,0.07,,,0.58,45.000000,,2013-01-01 18:53:00,
2013-01-01 14:02:00,48.0,48.0,-100.00,North,358,1.0,3.0,100,0.08,,,0.66,33.000000,,2013-01-01 19:02:00,
2013-01-01 14:33:00,48.0,48.0,-100.00,North,358,1.0,3.0,100,0.08,,,0.66,33.000000,,2013-01-01 19:33:00,
2013-01-01 14:43:00,48.0,48.0,-100.00,North,358,1.0,3.0,100,0.08,,,0.66,33.000000,,2013-01-01 19:43:00,
2013-01-01 14:53:00,48.0,48.0,-100.00,North,358,1.0,3.0,100,0.08,,,0.66,33.000000,,2013-01-01 19:53:00,
2013-01-01 15:02:00,49.0,49.0,-100.00,SSE,160,2.0,2.0,100,0.06,,,0.72,41.000000,,2013-01-01 20:02:00,
2013-01-01 15:23:00,49.0,49.0,-100.00,SSE,160,2.0,2.0,100,0.06,,,0.72,41.000000,,2013-01-01 20:23:00,
2013-01-01 15:32:00,49.0,49.0,-100.00,SSE,160,2.0,2.0,100,0.06,,,0.72,41.000000,,2013-01-01 20:32:00,
2013-01-01 15:42:00,49.0,49.0,-100.00,SSE,160,2.0,2.0,100,0.06,,,0.72,41.000000,,2013-01-01 20:42:00,
2013-01-01 15:53:00,49.0,49.0,-100.00,SSE,160,2.0,2.0,100,0.06,,,0.72,41.000000,,2013-01-01 20:53:00,
2013-01-01 16:02:00,49.0,49.0,-100.00,SE,143,1.0,4.0,100,0.04,,,0.76,26.000000,,2013-01-01 21:02:00,
2013-01-01 16:33:00,49.0,49.0,-100.00,SE,143,1.0,4.0,100,0.04,,,0.76,26.000000,,2013-01-01 21:33:00,
2013-01-01 16:43:00,49.0,49.0,-100.00,SE,143,1.0,4.0,100,0.04,,,0.76,26.000000,,2013-01-01 21:43:00,
2013-01-01 16:53:00,49.0,49.0,-100.00,SE,143,1.0,4.0,100,0.04,,,0.76,26.000000,,2013-01-01 21:53:00,
2013-01-01 17:02:00,49.0,49.0,-100.00,SE,138,1.0,3.0,100,0.05,,,0.81,13.000000,,2013-01-01 22:02:00,
2013-01-01 17:33:00,49.0,49.0,-100.00,SE,138,1.0,3.0,100,0.05,,,0.81,13.000000,,2013-01-01 22:33:00,
2013-01-01 17:43:00,49.0,49.0,-100.00,SE,138,1.0,3.0,100,0.05,,,0.81,13.000000,,2013-01-01 22:43:00,
2013-01-01 17:53:00,49.0,49.0,-100.00,SE,138,1.0,3.0,100,0.05,,,0.81,13.000000,,2013-01-01 22:53:00,
2013-01-01 18:02:00,49.0,49.0,-100.00,North,352,2.0,3.0,100,0.03,,,0.84,1.000000,,2013-01-01 23:02:00,
2013-01-01 18:22:00,49.0,49.0,-100.00,North,352,2.0,3.0,100,0.03,,,0.84,1.000000,,2013-01-01 23:22:00,
2013-01-01 18:33:00,49.0,49.0,-100.00,North,352,2.0,3.0,100,0.03,,,0.84,1.000000,,2013-01-01 23:33:00,
2013-01-01 18:42:00,49.0,49.0,-100.00,North,352,2.0,3.0,100,0.03,,,0.84,1.000000,,2013-01-01 23:42:00,
2013-01-01 18:53:00,49.0,49.0,-100.00,North,352,2.0,3.0,100,0.03,,,0.84,1.000000,,2013-01-01 23:53:00,
2013-01-01 19:02:00,49.0,49.0,-100.00,North,5,1.0,4.0,100,0.06,,,0.90,0.000000,,2013-01-02 00:02:00,
2013-01-01 19:33:00,49.0,49.0,-100.00,North,5,1.0,4.0,100,0.06,,,0.90,0.000000,,2013-01-02 00:33:00,
2013-01-01 19:43:00,49.0,49.0,-100.00,North,5,1.0,4.0,100,0.06,,,0.90,0.000000,,2013-01-02 00:43:00,
2013-01-01 19:53:00,49.0,49.0,-100.00,North,5,1.0,4.0,100,0.06,,,0.90,0.000000,,2013-01-02 00:53:00,
2013-01-01 20:02:00,49.0,49.0,-100.00,NNE,17,3.0,4.0,100,0.07,,,0.97,0.000000,,2013-01-02 01:02:00,
2013-01-01 20:22:00,49.0,49.0,-100.00,NNE,17,3.0,4.0,100,0.07,,,0.97,0.000000,,2013-01-02 01:22:00,
2013-01-01 20:33:00,49.0,49.0,-100.00,NNE,17,3.0,4.0,100,0.07,,,0.97,0.000000,,2013-01-02 01:33:00,
2013-01-01 20:42:00,49.0,49.0,-100.00,NNE,17,3.0,4.0,100,0.07,,,0.97,0.000000,,2013-01-02 01:42:00,
2013-01-01 20:53:00,49.0,49.0,-100.00,NNE,17,3.0,4.0,100,0.07,,,0.97,0.000000,,2013-01-02 01:53:00,
2013-01-01 21:02:00,49.0,49.0,-100.00,NNE,17,3.0,4.0,100,0.09,,,1.06,0.000000,,2013-01-02 02:02:00,
2013-01-01 21:22:00,49.0,49.0,-100.00,NNE,17,3.0,4.0,100,0.09,,,1.06,0.000000,,2013-01-02 02:22:00,
2013-01-01 21:32:00,49.0,49.0,-100.00,NNE,17,3.0,4.0,100,0.09,,,1.06,0.000000,,2013-01-02 02:32:00,
2013-01-01 21:43:00,49.0,49.0,-100.00,NNE,17,3.0,4.0,100,0.09,,,1.06,0.000000,,2013-01-02 02:43:00,
2013-01-01 21:53:00,49.0,49.0,-100.00,NNE,17,3.0,4.0,100,0.09,,,1.06,0.000000,,2013-01-02 02:53:00,
2013-01-01 22:02:00,49.0,49.0,-100.00,NW,316,1.0,3.0,100,0.07,,,1.13,0.000000,,2013-01-02 03:02:00,
2013-01-01 22:32:00,49.0,49.0,-100.00,NW,316,1.0,3.0,100,0.07,,,1.13,0.000000,,2013-01-02 03:32:00,
2013-01-01 22:42:00,49.0,49.0,-100.00,NW,316,1.0,3.0,100,0.07,,,1.13,0.000000,,2013-01-02 03:42:00,
2013-01-01 22:53:00,49.0,49.0,-100.00,NW,316,1.0,3.0,100,0.07,,,1.13,0.000000,,2013-01-02 03:53:00,
2013-01-01 23:02:00,49.0,49.0,-100.00,NNW,328,2.0,2.0,100,0.03,,,1.16,0.000000,,2013-01-02 04:02:00,
2013-01-01 23:32:00,49.0,49.0,-100.00,NNW,328,2.0,2.0,100,0.03,,,1.16,0.000000,,2013-01-02 04:32:00,
2013-01-01 23:42:00,49.0,49.0,-100.00,NNW,328,2.0,2.0,100,0.03,,,1.16,0.000000,,2013-01-02 04:42:00,
2013-01-01 23:53:00,49.0,49.0,-100.00,NNW,328,2.0,2.0,100,0.03,,,1.16,0.000000,,2013-01-02 04:53:00,